Terminal Aerodrome Forecast
Issued by NWS Austin/San Antonio, TX

Home | Current Version | Previous Version | Text Only | Print | Product List | Glossary On
Versions: 1 2 3 4 5 6 7 8 9 10 11 12 13 14 15 16 17 18 19 20
000
FTUS44 KEWX 232320
TAFSAT
TAF
KSAT 232320Z 2400/2506 16015KT P6SM SCT040
     FM240700 15009KT P6SM OVC012
     FM240900 16008KT P6SM OVC007
     FM241400 17010KT P6SM BKN012
     FM241700 16011KT P6SM SCT040 BKN250=

USA.gov is the U.S. government's official web portal to all federal, state and local government web resources and services.